الصفحة الرئيسية
METAR-TAF:

METAR-TAF

مطار :

مطار خوسيه مارتي الدولي

هافانا, كوبا

دائرة عرض: 22-59N, خط طول: 082-24W, ارتفاع: 59 متر

مراقبة الطقس الحالي

تاريخ ووقت الإصدار 1ساعة و 1 دقيقة قبل الساعة 03:55UTC
ريح 3 عقدة من الشرق/الشمال الشرقي
درجة الحرارة 25°درجة مئوية
الرطوبة 94%
ضغط 1021 hPa
الرؤية: 9000 متر
غيوم قليلة على ارتفاع 4000 قدم

METAR: MUHA 180355Z 06003KT 9000 FEW040 25/24 Q1021

زمن: 00:56 (04:56 UTC)

توقعات

تاريخ ووقت الإصدار 5ساعات و 56 دقيقة قبل الساعة 23:00UTC
التوقعات صالحة من18 الساعة 00 UTC إلى 18 الساعة 24 UTC
ريح 7 عقدة من الشرق
الرؤية: 9000 متر
غيوم قليلة على ارتفاع 2000 قدم
مؤقت
من 18 الساعة 18 UTC إلى 18 الساعة 23 UTC
ريح 10 عقدةمن اتجاهات متغيرة
الرؤية: 3000 متر
غيوم قليلة على ارتفاع 1800 قدم, مزنة ركامية.
غيوم مفككة على ارتفاع 2500 قدم
عاصفة رعدية, مطر

TAF: MUHA 172300Z 1800/1824 09007KT 9000 FEW020 TEMPO 1818/1823 VRB10KT 3000 TSRA FEW018CB BKN025

أرصاد الطقس والتوقعات من أكثر من 4000 مطار (تقارير الطقس للمطار METAR والتنبؤ بالطقس بالمطارTAF).

المحطات المتاحة هي النقط الصفراء والحمراء على الخريطة.

حرك المؤشر فوق النقطة لمعرفة اسم المحطة.

ثم انقر لمعرفة أرصاد وتوقعات الطقس.

لتغيير الخارطة: اضغط على الأزرار الخضراء مع رمز الصليب الأسود للتكبير. على الزر الأخضر مع شرطة للتصغير، أو على الأسهم الخضراء للخرائط المجاورة.


METAR-TAF: